Main page
METAR-TAF:

METAR-TAF

Airports :

Burgos, Spain

Burgos Airport

latitude: 42-22N, longitude: 003-38W, elevation: 894 m

Current weather observation

The report was made 26 minutes ago, at 23:30 UTC
Wind 4 kt from the North, varying between North/Northwest and Northeast
Temperature 5°C
Humidity 87%
Pressure 1022 hPa
Visibility 10 km or more

METAR: LEBG 182330Z AUTO 01004KT 340V040 9999 BKN015/// OVC020/// 05/03 Q1022

Time: 00:56 (23:56 UTC)

Forecast

The report was made 6 hours and 56 minutes ago, at 17:00 UTC
Forecast valid from 18 at 18 UTC to 19 at 03 UTC
Wind 12 kt from the North/Northeast
Visibility 10 km or more
Scattered clouds at a height of 2000 ft
Broken clouds at a height of 3000 ft
Probability 30% :
Temporary
from 18 at 18 UTC to 18 at 24 UTC
Broken clouds at a height of 1400 ft
rain
Becoming
from 18 at 21 UTC to 18 at 23 UTC
Overcast at a height of 800 ft

TAF: LEBG 181700Z 1818/1903 03012KT 9999 SCT020 BKN030 PROB30 TEMPO 1818/1824 RA BKN014 BECMG 1821/1823 OVC008

Weather observations and forecasts of more than 4000 airports (METAR and TAF reports).

The available stations are represented by yellow and red dots on the map.

Hover mouse over dot to see the name of the station.

Then click to see weather observations and forecasts.

To change the map : click on the green buttons with a black cross to zoom in, on the green button with a dash to zoom out, or on the green arrows for adjacent maps.


METAR-TAF: